KMYP

Monarch Pass Airport

Monarch Pass, Colorado, USA
METAR KMYP 191053Z AUTO 28014KT 10SM CLR 08/M06 A3057 RMK AO2
Observed Flight Rules
Sep-19 @ 10:53 UTC (19 minutes ago) Visual Flight Rules
Wind Visibility Clouds
280° at 14 knots 10 miles
  • Clear skies
Temperatures Readings
Current 8°C / 46°F
Dewpoint -6°C / 21°F
Humidity 37%
Altimeter 30.57" Hg
Pressure 1035 hPa
Elevation 3667
METAR KMYP 191053Z AUTO 28014KT 10SM CLR 08/M06 A3057 RMK AO2
Observed Flight Rules
Sep-19 @ 10:53 UTC
(19 minutes ago)
VFR
Wind Visibility
280° at 14 knots 10 miles
Clouds
  • Clear skies
Temperature Dewpoint
8°C / 46°F -6°C / 21°F
Humidity Altimeter Pressure
37% 30.57" Hg 1035 hPa